createdAt,value
2023-06-29T00:00:47.841Z,15.30
2023-06-29T00:01:50.440Z,15.30
2023-06-29T00:02:54.297Z,15.30
2023-06-29T00:03:57.008Z,15.30
2023-06-29T00:05:00.039Z,15.20
2023-06-29T00:06:04.260Z,15.20
2023-06-29T00:07:07.040Z,15.20
2023-06-29T00:08:12.985Z,15.10
2023-06-29T00:09:15.448Z,15.20
2023-06-29T00:10:18.504Z,15.20
2023-06-29T00:11:21.633Z,15.10
2023-06-29T00:12:25.286Z,15.10
2023-06-29T00:13:27.090Z,15.10
2023-06-29T00:14:28.868Z,15.00
2023-06-29T00:15:30.725Z,15.00
2023-06-29T00:16:33.038Z,15.00
2023-06-29T00:17:36.018Z,15.00
2023-06-29T00:18:38.451Z,15.00
2023-06-29T00:19:40.811Z,15.00
2023-06-29T00:20:44.354Z,15.00
2023-06-29T00:21:47.953Z,15.00
2023-06-29T00:22:50.436Z,15.00
2023-06-29T00:23:54.879Z,15.00
2023-06-29T00:24:58.573Z,15.00
2023-06-29T00:26:04.232Z,14.90
2023-06-29T00:27:07.550Z,14.90
2023-06-29T00:28:11.523Z,14.90
2023-06-29T00:29:14.349Z,14.90
2023-06-29T00:30:19.140Z,14.90
2023-06-29T00:31:23.922Z,14.90
2023-06-29T00:32:26.700Z,14.90
2023-06-29T00:33:29.278Z,14.90
2023-06-29T00:34:32.621Z,14.80
2023-06-29T00:35:35.157Z,14.80
2023-06-29T00:36:38.090Z,14.80
2023-06-29T00:37:41.551Z,14.70
2023-06-29T00:38:43.881Z,14.80
2023-06-29T00:39:46.377Z,14.80
2023-06-29T00:40:49.988Z,14.70
2023-06-29T00:41:56.673Z,14.70
2023-06-29T00:42:59.287Z,14.70
2023-06-29T00:44:01.852Z,14.70
2023-06-29T00:45:08.470Z,14.70
2023-06-29T00:46:13.014Z,14.70
2023-06-29T00:47:15.433Z,14.70
2023-06-29T00:48:20.026Z,14.60
2023-06-29T00:49:24.026Z,14.70
2023-06-29T00:50:26.701Z,14.70
2023-06-29T00:51:31.123Z,14.70
2023-06-29T00:52:34.361Z,14.70
2023-06-29T00:53:39.117Z,14.70
2023-06-29T00:54:42.150Z,14.70
2023-06-29T00:55:46.034Z,14.60
2023-06-29T00:56:48.635Z,14.60
2023-06-29T00:57:52.452Z,14.60
2023-06-29T00:58:55.073Z,14.60
2023-06-29T01:00:00.996Z,14.60
2023-06-29T01:01:03.540Z,14.60
2023-06-29T01:02:09.675Z,14.60
2023-06-29T01:03:12.878Z,14.60
2023-06-29T01:04:27.693Z,14.60
2023-06-29T01:05:35.847Z,14.60
2023-06-29T01:06:46.405Z,14.60
2023-06-29T01:08:04.713Z,14.60
2023-06-29T01:09:07.195Z,14.60
2023-06-29T01:10:12.693Z,14.60
2023-06-29T01:11:16.772Z,14.60
2023-06-29T01:12:20.150Z,14.60
2023-06-29T01:13:23.779Z,14.50
2023-06-29T01:14:28.307Z,14.60
2023-06-29T01:15:31.473Z,14.60
2023-06-29T01:16:38.202Z,14.60
2023-06-29T01:17:41.799Z,14.60
2023-06-29T01:18:49.266Z,14.60
2023-06-29T01:19:53.749Z,14.60
2023-06-29T01:20:57.818Z,14.60
2023-06-29T01:22:30.230Z,14.60
2023-06-29T01:23:38.526Z,14.60
2023-06-29T01:24:42.397Z,14.50
2023-06-29T01:25:48.375Z,14.50
2023-06-29T01:26:52.235Z,14.50
2023-06-29T01:27:55.821Z,14.60
2023-06-29T01:28:58.318Z,14.60
2023-06-29T01:30:02.536Z,14.50
2023-06-29T01:31:05.945Z,14.50
2023-06-29T01:32:11.492Z,14.50
2023-06-29T01:33:15.710Z,14.50
2023-06-29T01:34:18.394Z,14.50
2023-06-29T01:35:21.783Z,14.50
2023-06-29T01:36:38.694Z,14.50
2023-06-29T01:37:56.576Z,14.50
2023-06-29T01:39:07.283Z,14.50
2023-06-29T01:40:12.558Z,14.50
2023-06-29T01:41:19.688Z,14.50
2023-06-29T01:42:22.438Z,14.50
2023-06-29T01:43:26.094Z,14.50
2023-06-29T01:44:28.938Z,14.50
2023-06-29T01:45:32.783Z,14.50
2023-06-29T01:46:36.861Z,14.40
2023-06-29T01:47:41.191Z,14.40
2023-06-29T01:48:43.955Z,14.30
2023-06-29T01:49:46.418Z,14.30
2023-06-29T01:50:50.570Z,14.30
2023-06-29T01:51:52.506Z,14.20
2023-06-29T01:52:54.362Z,14.20
2023-06-29T01:53:56.181Z,14.20
2023-06-29T01:54:57.969Z,14.20
2023-06-29T01:55:59.772Z,14.20
2023-06-29T01:57:02.141Z,14.20
2023-06-29T01:58:04.070Z,14.20
2023-06-29T01:59:05.958Z,14.10
2023-06-29T02:00:10.015Z,14.10
2023-06-29T02:01:11.921Z,14.10
2023-06-29T02:02:14.322Z,14.10
2023-06-29T02:03:16.242Z,14.10
2023-06-29T02:04:18.190Z,14.00
2023-06-29T02:05:20.471Z,14.00
2023-06-29T02:06:22.290Z,14.00
2023-06-29T02:07:24.173Z,14.00
2023-06-29T02:08:26.068Z,14.00
2023-06-29T02:09:28.115Z,14.00
2023-06-29T02:10:29.997Z,14.00
2023-06-29T02:11:31.805Z,14.00
2023-06-29T02:12:33.838Z,14.00
2023-06-29T02:13:35.698Z,14.00
2023-06-29T02:14:37.589Z,13.90
2023-06-29T02:15:39.412Z,13.90
2023-06-29T02:16:41.275Z,13.90
2023-06-29T02:17:43.260Z,13.90
2023-06-29T02:18:45.113Z,13.90
2023-06-29T02:19:46.934Z,13.80
2023-06-29T02:20:48.733Z,13.80
2023-06-29T02:21:50.523Z,13.80
2023-06-29T02:22:52.317Z,13.80
2023-06-29T02:23:54.105Z,13.70
2023-06-29T02:24:55.924Z,13.70
2023-06-29T02:25:57.712Z,13.70
2023-06-29T02:26:59.553Z,13.70
2023-06-29T02:28:01.544Z,13.70
2023-06-29T02:29:03.390Z,13.60
2023-06-29T02:30:06.087Z,13.60
2023-06-29T02:31:08.156Z,13.60
2023-06-29T02:32:10.590Z,13.60
2023-06-29T02:33:12.377Z,13.60
2023-06-29T02:34:14.760Z,13.60
2023-06-29T02:35:16.604Z,13.60
2023-06-29T02:36:22.060Z,13.70
2023-06-29T02:37:23.864Z,13.70
2023-06-29T02:38:25.667Z,13.60
2023-06-29T02:39:27.514Z,13.70
2023-06-29T02:40:29.282Z,13.60
2023-06-29T02:41:31.118Z,13.60
2023-06-29T02:42:33.361Z,13.60
2023-06-29T02:43:35.214Z,13.60
2023-06-29T02:44:37.029Z,13.50
2023-06-29T02:45:38.942Z,13.50
2023-06-29T02:46:41.396Z,13.50
2023-06-29T02:47:43.458Z,13.50
2023-06-29T02:48:45.317Z,13.50
2023-06-29T02:49:47.098Z,13.40
2023-06-29T02:50:48.918Z,13.50
2023-06-29T02:51:50.841Z,13.50
2023-06-29T02:52:52.638Z,13.50
2023-06-29T02:53:54.465Z,13.50
2023-06-29T02:54:56.273Z,13.50
2023-06-29T02:55:58.072Z,13.50
2023-06-29T02:56:59.901Z,13.50
2023-06-29T02:58:01.743Z,13.50
2023-06-29T02:59:03.528Z,13.50
2023-06-29T03:00:06.085Z,13.50
2023-06-29T03:01:08.164Z,13.50
2023-06-29T03:02:10.156Z,13.40
2023-06-29T03:03:12.094Z,13.40
2023-06-29T03:04:13.971Z,13.40
2023-06-29T03:05:15.795Z,13.40
2023-06-29T03:06:17.618Z,13.30
2023-06-29T03:07:19.422Z,13.30
2023-06-29T03:08:21.265Z,13.20
2023-06-29T03:09:23.139Z,13.30
2023-06-29T03:10:24.988Z,13.30
2023-06-29T03:11:26.783Z,13.30
2023-06-29T03:12:28.912Z,13.30
2023-06-29T03:13:30.704Z,13.30
2023-06-29T03:14:32.495Z,13.30
2023-06-29T03:15:34.306Z,13.30
2023-06-29T03:16:36.196Z,13.30
2023-06-29T03:17:38.584Z,13.30
2023-06-29T03:18:40.445Z,13.30
2023-06-29T03:19:42.636Z,13.30
2023-06-29T03:20:44.414Z,13.30
2023-06-29T03:21:46.179Z,13.30
2023-06-29T03:22:48.029Z,13.30
2023-06-29T03:23:50.770Z,13.30
2023-06-29T03:24:52.700Z,13.40
2023-06-29T03:25:54.587Z,13.40
2023-06-29T03:26:56.398Z,13.40
2023-06-29T03:27:58.246Z,13.40
2023-06-29T03:29:00.035Z,13.40
2023-06-29T03:30:01.872Z,13.50
2023-06-29T03:31:03.684Z,13.50
2023-06-29T03:32:06.045Z,13.50
2023-06-29T03:33:08.158Z,13.50
2023-06-29T03:34:10.010Z,13.50
2023-06-29T03:35:11.976Z,13.60
2023-06-29T03:36:13.922Z,13.60
2023-06-29T03:37:15.815Z,13.60
2023-06-29T03:38:18.685Z,13.70
2023-06-29T03:39:20.542Z,13.70
2023-06-29T03:40:22.440Z,13.70
2023-06-29T03:41:24.234Z,13.60
2023-06-29T03:42:26.576Z,13.70
2023-06-29T03:43:28.381Z,13.70
2023-06-29T03:44:30.226Z,13.70
2023-06-29T03:45:32.739Z,13.70
2023-06-29T03:46:34.602Z,13.80
2023-06-29T03:47:36.604Z,13.80
2023-06-29T03:48:38.758Z,13.80
2023-06-29T03:49:40.624Z,13.90
2023-06-29T03:50:42.488Z,13.90
2023-06-29T03:51:45.224Z,13.90
2023-06-29T03:52:47.015Z,13.90
2023-06-29T03:53:48.821Z,13.90
2023-06-29T03:54:51.021Z,13.90
2023-06-29T03:55:52.813Z,14.00
2023-06-29T03:56:55.460Z,14.00
2023-06-29T03:57:58.931Z,14.00
2023-06-29T03:59:00.803Z,14.00
2023-06-29T04:00:04.147Z,14.00
2023-06-29T04:01:05.943Z,14.10
2023-06-29T04:02:08.941Z,14.10
2023-06-29T04:03:12.379Z,14.10
2023-06-29T04:04:14.296Z,14.10
2023-06-29T04:05:16.283Z,14.20
2023-06-29T04:06:18.110Z,14.20
2023-06-29T04:07:19.953Z,14.20
2023-06-29T04:08:21.875Z,14.30
2023-06-29T04:09:23.707Z,14.30
2023-06-29T04:10:25.513Z,14.30
2023-06-29T04:11:27.273Z,14.30
2023-06-29T04:12:29.075Z,14.30
2023-06-29T04:13:30.895Z,14.40
2023-06-29T04:14:32.657Z,14.40
2023-06-29T04:15:34.462Z,14.40
2023-06-29T04:16:36.287Z,14.40
2023-06-29T04:17:38.183Z,14.50
2023-06-29T04:18:40.232Z,14.50
2023-06-29T04:19:42.047Z,14.50
2023-06-29T04:20:43.950Z,14.50
2023-06-29T04:21:45.743Z,14.60
2023-06-29T04:22:47.590Z,14.60
2023-06-29T04:23:49.657Z,14.70
2023-06-29T04:24:52.348Z,14.70
2023-06-29T04:25:56.036Z,14.70
2023-06-29T04:26:58.305Z,14.70
2023-06-29T04:28:00.597Z,14.80
2023-06-29T04:29:03.887Z,14.80
2023-06-29T04:30:07.032Z,14.80
2023-06-29T04:31:09.100Z,14.80
2023-06-29T04:32:11.275Z,14.80
2023-06-29T04:33:15.998Z,14.80
2023-06-29T04:34:18.526Z,14.80
2023-06-29T04:35:20.885Z,14.90
2023-06-29T04:36:23.376Z,14.90
2023-06-29T04:37:25.541Z,14.90
2023-06-29T04:38:28.938Z,15.00
2023-06-29T04:39:31.098Z,15.00
2023-06-29T04:40:33.074Z,15.00
2023-06-29T04:41:34.931Z,15.00
2023-06-29T04:42:45.084Z,15.00
2023-06-29T04:43:49.221Z,15.00
2023-06-29T04:44:51.159Z,15.00
2023-06-29T04:45:53.397Z,15.00
2023-06-29T04:46:55.317Z,15.10
2023-06-29T04:47:57.751Z,15.10
2023-06-29T04:49:06.300Z,15.00
2023-06-29T04:50:12.076Z,15.00
2023-06-29T04:51:14.463Z,15.10
2023-06-29T04:52:19.822Z,15.10
2023-06-29T04:53:22.134Z,15.10
2023-06-29T04:54:24.189Z,15.10
2023-06-29T04:55:26.882Z,15.10
2023-06-29T04:56:38.517Z,15.20
2023-06-29T04:57:40.349Z,15.20
2023-06-29T04:58:42.207Z,15.20
2023-06-29T04:59:44.044Z,15.20
2023-06-29T05:00:46.183Z,15.30
2023-06-29T05:01:48.647Z,15.30
2023-06-29T05:02:50.617Z,15.30
2023-06-29T05:03:52.937Z,15.30
2023-06-29T05:04:55.139Z,15.40
2023-06-29T05:05:57.180Z,15.30
2023-06-29T05:06:59.574Z,15.40
2023-06-29T05:08:01.927Z,15.40
2023-06-29T05:09:06.216Z,15.40
2023-06-29T05:10:08.884Z,15.40
2023-06-29T05:11:10.715Z,15.40
2023-06-29T05:12:12.590Z,15.50
2023-06-29T05:13:14.726Z,15.50
2023-06-29T05:14:16.945Z,15.50
2023-06-29T05:15:18.898Z,15.60
2023-06-29T05:16:23.758Z,15.60
2023-06-29T05:17:25.802Z,15.60
2023-06-29T05:18:28.056Z,15.70
2023-06-29T05:19:29.940Z,15.70
2023-06-29T05:20:32.274Z,15.70
2023-06-29T05:21:34.182Z,15.70
2023-06-29T05:22:36.949Z,15.70
2023-06-29T05:23:41.193Z,15.70
2023-06-29T05:24:44.410Z,15.80
2023-06-29T05:25:46.669Z,15.80
2023-06-29T05:26:49.238Z,15.80
2023-06-29T05:27:51.198Z,15.80
2023-06-29T05:29:05.258Z,15.90
2023-06-29T05:30:12.092Z,15.90
2023-06-29T05:31:16.285Z,15.90
2023-06-29T05:32:18.465Z,16.00
2023-06-29T05:33:20.381Z,16.00
2023-06-29T05:34:23.366Z,16.00
2023-06-29T05:35:28.025Z,16.10
2023-06-29T05:36:31.175Z,16.00
2023-06-29T05:37:34.617Z,16.10
2023-06-29T05:38:36.663Z,16.10
2023-06-29T05:39:39.225Z,16.20
2023-06-29T05:40:41.638Z,16.20
2023-06-29T05:41:44.042Z,16.20
2023-06-29T05:42:45.904Z,16.20
2023-06-29T05:43:47.702Z,16.20
2023-06-29T05:44:49.713Z,16.30
2023-06-29T05:45:51.536Z,16.30
2023-06-29T05:46:53.407Z,16.40
2023-06-29T05:47:56.647Z,16.40
2023-06-29T05:48:58.631Z,16.50
2023-06-29T05:50:00.444Z,16.50
2023-06-29T05:51:02.255Z,16.60
2023-06-29T05:52:04.630Z,16.60
2023-06-29T05:53:06.434Z,16.60
2023-06-29T05:54:08.250Z,16.70
2023-06-29T05:55:10.610Z,16.70
2023-06-29T05:56:12.452Z,16.80
2023-06-29T05:57:14.304Z,16.80
2023-06-29T05:58:16.187Z,16.80
2023-06-29T05:59:18.026Z,16.90
2023-06-29T06:00:20.110Z,16.90
2023-06-29T06:01:21.964Z,17.00
2023-06-29T06:02:23.862Z,17.00
2023-06-29T06:03:25.770Z,17.10
2023-06-29T06:04:27.757Z,17.10
2023-06-29T06:05:30.974Z,17.20
2023-06-29T06:06:33.671Z,17.20
2023-06-29T06:07:43.424Z,17.30
2023-06-29T06:08:45.280Z,17.40
2023-06-29T06:09:47.132Z,17.40
2023-06-29T06:10:52.192Z,17.50
2023-06-29T06:11:56.196Z,17.60
2023-06-29T06:12:58.803Z,17.60
2023-06-29T06:14:00.771Z,17.70
2023-06-29T06:15:02.700Z,17.70
2023-06-29T06:16:05.928Z,17.70
2023-06-29T06:17:07.793Z,17.90
2023-06-29T06:18:09.636Z,17.90
2023-06-29T06:19:11.884Z,18.00
2023-06-29T06:20:14.309Z,18.00
2023-06-29T06:21:16.898Z,18.10
2023-06-29T06:22:18.722Z,18.20
2023-06-29T06:23:21.340Z,18.20
2023-06-29T06:24:23.123Z,18.30
2023-06-29T06:25:25.060Z,18.40
2023-06-29T06:26:26.884Z,18.40
2023-06-29T06:27:29.011Z,18.50
2023-06-29T06:28:31.049Z,18.60
2023-06-29T06:29:33.073Z,18.60
2023-06-29T06:30:34.975Z,18.70
2023-06-29T06:31:36.842Z,18.80
2023-06-29T06:32:42.838Z,18.80
2023-06-29T06:33:47.042Z,18.90
2023-06-29T06:34:51.985Z,19.00
2023-06-29T06:35:54.281Z,19.00
2023-06-29T06:36:56.101Z,19.10
2023-06-29T06:37:57.888Z,19.20
2023-06-29T06:39:00.135Z,19.20
2023-06-29T06:40:02.837Z,19.30
2023-06-29T06:41:04.673Z,19.40
2023-06-29T06:42:06.775Z,19.40
2023-06-29T06:43:08.621Z,19.50
2023-06-29T06:44:11.837Z,19.60
2023-06-29T06:45:17.712Z,19.60
2023-06-29T06:46:19.578Z,19.70
2023-06-29T06:47:21.760Z,19.80
2023-06-29T06:48:23.630Z,19.90
2023-06-29T06:49:25.966Z,19.90
2023-06-29T06:50:28.170Z,20.00
2023-06-29T06:51:34.152Z,20.10
2023-06-29T06:52:39.384Z,20.20
2023-06-29T06:53:41.416Z,20.30
2023-06-29T06:54:46.423Z,20.40
2023-06-29T06:55:51.610Z,20.40
2023-06-29T06:56:56.577Z,20.50
2023-06-29T06:57:59.183Z,20.50
2023-06-29T06:59:09.849Z,20.60
2023-06-29T07:00:14.094Z,20.60
2023-06-29T07:01:20.933Z,20.70
2023-06-29T07:02:23.080Z,20.70
2023-06-29T07:03:27.184Z,20.80
2023-06-29T07:04:29.103Z,20.80
2023-06-29T07:05:31.085Z,20.90
2023-06-29T07:06:34.752Z,20.90
2023-06-29T07:07:36.672Z,21.00
2023-06-29T07:08:38.668Z,21.10
2023-06-29T07:09:40.559Z,21.10
2023-06-29T07:10:42.585Z,21.20
2023-06-29T07:11:44.655Z,21.20
2023-06-29T07:12:47.171Z,21.30
2023-06-29T07:13:48.977Z,21.30
2023-06-29T07:14:50.796Z,21.30
2023-06-29T07:15:52.625Z,21.30
2023-06-29T07:16:56.058Z,21.40
2023-06-29T07:17:57.950Z,21.50
2023-06-29T07:21:21.194Z,21.70
2023-06-29T07:24:34.236Z,21.90
2023-06-29T07:25:36.084Z,22.00
2023-06-29T07:26:38.960Z,22.00
2023-06-29T07:27:40.940Z,22.10
2023-06-29T07:28:42.740Z,22.10
2023-06-29T07:29:46.009Z,22.10
2023-06-29T07:30:47.854Z,22.20
2023-06-29T07:31:49.780Z,22.30
2023-06-29T07:32:53.519Z,22.30
2023-06-29T07:33:56.436Z,22.30
2023-06-29T07:34:58.258Z,22.40
2023-06-29T07:36:00.164Z,22.40
2023-06-29T07:37:02.082Z,22.50
2023-06-29T07:38:03.935Z,22.60
2023-06-29T07:39:05.777Z,22.70
2023-06-29T07:40:08.312Z,22.70
2023-06-29T07:41:10.180Z,22.80
2023-06-29T07:42:11.980Z,22.90
2023-06-29T07:43:13.796Z,23.00
2023-06-29T07:44:15.620Z,23.00
2023-06-29T07:45:17.495Z,23.10
2023-06-29T07:46:19.366Z,23.10
2023-06-29T07:47:21.282Z,23.10
2023-06-29T07:48:23.307Z,23.20
2023-06-29T07:49:25.208Z,23.20
2023-06-29T07:50:27.174Z,23.30
2023-06-29T07:51:34.349Z,23.40
2023-06-29T07:52:36.509Z,23.40
2023-06-29T07:53:38.317Z,23.40
2023-06-29T07:54:40.176Z,23.30
2023-06-29T07:55:42.122Z,23.40
2023-06-29T07:58:53.766Z,23.60
2023-06-29T07:59:55.755Z,23.70
2023-06-29T08:00:58.069Z,23.70
2023-06-29T08:01:59.885Z,23.70
2023-06-29T08:03:01.803Z,23.80
2023-06-29T08:04:04.883Z,23.80
2023-06-29T08:07:18.015Z,24.00
2023-06-29T08:08:22.101Z,24.10
2023-06-29T08:09:24.041Z,24.10
2023-06-29T08:10:25.915Z,24.20
2023-06-29T08:11:28.847Z,24.20
2023-06-29T08:12:30.715Z,24.30
2023-06-29T08:13:32.555Z,24.30
2023-06-29T08:14:36.548Z,24.40
2023-06-29T08:15:38.419Z,24.40
2023-06-29T08:16:40.358Z,24.50
2023-06-29T08:17:45.615Z,24.60
2023-06-29T08:18:47.549Z,24.60
2023-06-29T08:19:49.340Z,24.70
2023-06-29T08:20:51.211Z,24.80
2023-06-29T08:21:56.420Z,24.80
2023-06-29T08:22:58.368Z,24.80
2023-06-29T08:24:00.170Z,24.80
2023-06-29T08:25:02.173Z,24.90
2023-06-29T08:26:05.597Z,24.90
2023-06-29T08:27:07.478Z,25.00
2023-06-29T08:28:09.358Z,25.00
2023-06-29T08:29:11.252Z,25.10
2023-06-29T08:30:13.653Z,25.10
2023-06-29T08:31:15.823Z,25.00
2023-06-29T08:32:17.733Z,25.10
2023-06-29T08:33:19.694Z,25.20
2023-06-29T08:34:21.555Z,25.20
2023-06-29T08:35:23.381Z,25.20
2023-06-29T08:36:26.523Z,25.30
2023-06-29T08:37:29.451Z,25.50
2023-06-29T08:38:31.626Z,25.70
2023-06-29T08:39:33.387Z,25.70
2023-06-29T08:40:36.551Z,25.60
2023-06-29T08:41:38.413Z,25.50
2023-06-29T08:42:40.760Z,25.50
2023-06-29T08:43:42.621Z,25.50
2023-06-29T08:44:44.471Z,25.40
2023-06-29T08:45:47.181Z,25.50
2023-06-29T08:46:50.003Z,25.60
2023-06-29T08:47:54.588Z,25.80
2023-06-29T08:48:57.052Z,26.00
2023-06-29T08:49:59.681Z,26.10
2023-06-29T08:51:07.978Z,26.00
2023-06-29T08:52:16.738Z,26.00
2023-06-29T08:53:19.371Z,25.90
2023-06-29T08:54:21.600Z,26.00
2023-06-29T08:55:24.550Z,25.90
2023-06-29T08:56:27.306Z,26.00
2023-06-29T08:57:33.067Z,25.90
2023-06-29T08:58:35.033Z,25.70
2023-06-29T08:59:38.647Z,25.90
2023-06-29T09:00:42.156Z,26.00
2023-06-29T09:01:45.109Z,26.10
2023-06-29T09:02:47.545Z,26.30
2023-06-29T09:03:51.362Z,26.40
2023-06-29T09:04:53.308Z,26.60
2023-06-29T09:05:58.066Z,26.80
2023-06-29T09:06:59.971Z,26.90
2023-06-29T09:08:02.414Z,27.00
2023-06-29T09:09:04.863Z,27.10
2023-06-29T09:10:08.832Z,27.00
2023-06-29T09:11:10.661Z,26.90
2023-06-29T09:12:12.456Z,26.90
2023-06-29T09:13:14.705Z,27.10
2023-06-29T09:14:16.615Z,27.30
2023-06-29T09:15:19.024Z,27.40
2023-06-29T09:16:20.847Z,27.30
2023-06-29T09:17:23.220Z,27.30
2023-06-29T09:18:28.197Z,27.30
2023-06-29T09:19:33.434Z,27.10
2023-06-29T09:20:43.436Z,27.00
2023-06-29T09:21:49.178Z,26.70
2023-06-29T09:22:54.679Z,26.70
2023-06-29T09:23:59.033Z,26.60
2023-06-29T09:25:10.424Z,26.40
2023-06-29T09:26:24.136Z,26.50
2023-06-29T09:27:27.742Z,26.60
2023-06-29T09:28:29.567Z,26.70
2023-06-29T09:30:40.549Z,27.10
2023-06-29T09:31:57.877Z,27.20
2023-06-29T09:33:06.521Z,27.20
2023-06-29T09:34:23.883Z,27.30
2023-06-29T09:35:25.707Z,27.30
2023-06-29T09:36:28.045Z,27.50
2023-06-29T09:37:29.841Z,27.70
2023-06-29T09:38:33.132Z,27.80
2023-06-29T09:39:35.040Z,27.80
2023-06-29T09:40:56.282Z,27.70
2023-06-29T09:41:58.372Z,27.70
2023-06-29T09:43:06.470Z,27.60
2023-06-29T09:44:08.287Z,27.60
2023-06-29T09:45:15.805Z,27.60
2023-06-29T09:46:19.375Z,27.60
2023-06-29T09:49:31.740Z,27.60
2023-06-29T09:50:34.011Z,27.60
2023-06-29T09:51:35.988Z,27.50
2023-06-29T09:52:46.589Z,27.50
2023-06-29T09:53:48.687Z,27.50
2023-06-29T09:54:53.283Z,27.50
2023-06-29T09:55:56.819Z,27.50
2023-06-29T09:56:58.676Z,27.60
2023-06-29T09:58:01.687Z,27.70
2023-06-29T09:59:03.753Z,27.70
2023-06-29T10:00:13.160Z,27.60
2023-06-29T10:01:17.220Z,27.60
2023-06-29T10:02:20.360Z,27.60
2023-06-29T10:03:22.474Z,27.70
2023-06-29T10:04:25.293Z,27.80
2023-06-29T10:05:31.196Z,27.80
2023-06-29T10:06:49.558Z,27.50
2023-06-29T10:07:55.122Z,27.80
2023-06-29T10:08:59.606Z,28.00
2023-06-29T10:10:03.206Z,28.10
2023-06-29T10:11:06.912Z,28.20
2023-06-29T10:12:11.345Z,28.40
2023-06-29T10:13:13.979Z,28.30
2023-06-29T10:14:16.833Z,28.40
2023-06-29T10:15:22.128Z,28.10
2023-06-29T10:16:24.644Z,27.70
2023-06-29T10:17:53.588Z,27.70
2023-06-29T10:19:02.372Z,28.00
2023-06-29T10:20:05.964Z,28.20
2023-06-29T10:21:08.574Z,28.50
2023-06-29T10:22:17.391Z,28.60
2023-06-29T10:23:21.644Z,28.70
2023-06-29T10:24:32.901Z,28.80
2023-06-29T10:25:38.175Z,28.50
2023-06-29T10:26:41.471Z,28.60
2023-06-29T10:27:45.067Z,28.70
2023-06-29T10:28:47.148Z,28.80
2023-06-29T10:29:51.899Z,28.90
2023-06-29T10:30:59.589Z,28.90
2023-06-29T10:32:01.624Z,29.00
2023-06-29T10:33:07.221Z,29.00
2023-06-29T10:34:09.227Z,29.10
2023-06-29T10:35:15.226Z,29.20
2023-06-29T10:36:18.648Z,29.20
2023-06-29T10:37:43.851Z,29.30
2023-06-29T10:38:45.732Z,29.40
2023-06-29T10:39:48.636Z,29.30
2023-06-29T10:40:50.930Z,29.30
2023-06-29T10:41:52.720Z,29.30
2023-06-29T10:42:56.735Z,29.30
2023-06-29T10:43:59.936Z,29.30
2023-06-29T10:45:03.895Z,29.30
2023-06-29T10:46:08.136Z,29.20
2023-06-29T10:47:26.368Z,29.00
2023-06-29T10:48:47.336Z,29.20
2023-06-29T10:50:15.945Z,29.30
2023-06-29T10:51:19.696Z,29.50
2023-06-29T10:52:25.803Z,29.70
2023-06-29T10:53:30.757Z,29.70
2023-06-29T10:54:32.974Z,29.70
2023-06-29T10:55:54.100Z,29.60
2023-06-29T10:57:06.531Z,29.50
2023-06-29T10:58:36.429Z,29.30
2023-06-29T10:59:40.111Z,29.00
2023-06-29T11:00:42.455Z,28.70
2023-06-29T11:01:44.736Z,28.60
2023-06-29T11:02:49.327Z,28.50
2023-06-29T11:03:52.791Z,28.50
2023-06-29T11:04:54.664Z,28.50
2023-06-29T11:05:57.928Z,28.50
2023-06-29T11:07:08.147Z,28.40
2023-06-29T11:08:10.266Z,28.40
2023-06-29T11:09:15.670Z,28.40
2023-06-29T11:10:20.219Z,28.40
2023-06-29T11:11:23.183Z,28.30
2023-06-29T11:12:24.967Z,28.30
2023-06-29T11:13:26.805Z,28.30
2023-06-29T11:14:29.654Z,28.40
2023-06-29T11:15:34.206Z,28.50
2023-06-29T11:16:36.115Z,28.60
2023-06-29T11:17:38.076Z,28.70
2023-06-29T11:18:48.754Z,28.70
2023-06-29T11:19:51.252Z,28.90
2023-06-29T11:20:53.172Z,29.00
2023-06-29T11:21:55.752Z,29.10
2023-06-29T11:22:58.754Z,29.20
2023-06-29T11:24:00.745Z,29.20
2023-06-29T11:25:05.213Z,29.30
2023-06-29T11:26:07.309Z,29.30
2023-06-29T11:27:09.127Z,29.30
2023-06-29T11:28:10.980Z,29.60
2023-06-29T11:29:13.913Z,29.70
2023-06-29T11:30:15.929Z,29.80
2023-06-29T11:31:18.301Z,29.90
2023-06-29T11:32:20.562Z,30.00
2023-06-29T11:33:33.663Z,30.00
2023-06-29T11:34:36.513Z,30.00
2023-06-29T11:35:38.432Z,29.90
2023-06-29T11:36:40.336Z,29.80
2023-06-29T11:37:42.377Z,29.70
2023-06-29T11:38:44.140Z,29.20
2023-06-29T11:39:50.252Z,29.00
2023-06-29T11:41:03.853Z,29.00
2023-06-29T11:42:10.524Z,29.10
2023-06-29T11:43:15.435Z,29.10
2023-06-29T11:44:17.344Z,29.10
2023-06-29T11:45:19.456Z,29.20
2023-06-29T11:46:21.725Z,29.20
2023-06-29T11:47:32.780Z,29.30
2023-06-29T11:48:36.581Z,29.40
2023-06-29T11:49:38.503Z,29.40
2023-06-29T11:50:41.501Z,29.40
2023-06-29T11:51:43.950Z,29.40
2023-06-29T11:52:46.228Z,29.40
2023-06-29T11:53:48.648Z,29.30
2023-06-29T11:54:50.973Z,29.40
2023-06-29T11:55:55.374Z,29.60
2023-06-29T11:56:57.875Z,29.70
2023-06-29T11:58:00.576Z,29.90
2023-06-29T11:59:18.118Z,29.90
2023-06-29T12:00:19.912Z,30.00
2023-06-29T12:01:22.835Z,30.00
2023-06-29T12:02:24.966Z,30.00
2023-06-29T12:03:27.886Z,29.50
2023-06-29T12:04:30.070Z,29.50
2023-06-29T12:05:31.943Z,29.60
2023-06-29T12:06:37.550Z,29.80
2023-06-29T12:07:44.907Z,29.90
2023-06-29T12:08:51.993Z,30.10
2023-06-29T12:09:54.372Z,30.20
2023-06-29T12:10:56.204Z,30.20
2023-06-29T12:11:59.987Z,30.10
2023-06-29T12:13:03.256Z,30.00
2023-06-29T12:14:05.100Z,30.00
2023-06-29T12:15:29.324Z,29.90
2023-06-29T12:18:42.975Z,29.80
2023-06-29T12:19:54.745Z,29.80
2023-06-29T12:21:07.061Z,29.80
2023-06-29T12:22:16.594Z,29.90
2023-06-29T12:23:18.466Z,29.90
2023-06-29T12:24:20.378Z,29.90
2023-06-29T12:25:23.206Z,29.90
2023-06-29T12:26:26.179Z,29.80
2023-06-29T12:27:27.941Z,29.70
2023-06-29T12:28:29.798Z,29.50
2023-06-29T12:29:31.647Z,29.30
2023-06-29T12:30:33.470Z,29.10
2023-06-29T12:31:35.391Z,29.10
2023-06-29T12:32:37.394Z,29.10
2023-06-29T12:33:39.218Z,29.00
2023-06-29T12:34:41.183Z,29.00
2023-06-29T12:35:46.095Z,29.10
2023-06-29T12:36:48.148Z,29.00
2023-06-29T12:37:49.978Z,29.10
2023-06-29T12:38:52.295Z,29.20
2023-06-29T12:39:55.437Z,29.30
2023-06-29T12:40:57.278Z,29.50
2023-06-29T12:41:59.086Z,29.80
2023-06-29T12:43:01.541Z,29.90
2023-06-29T12:44:03.883Z,29.80
2023-06-29T12:45:06.627Z,29.70
2023-06-29T12:46:10.862Z,29.60
2023-06-29T12:47:12.714Z,29.60
2023-06-29T12:48:14.597Z,29.70
2023-06-29T12:49:16.424Z,29.80
2023-06-29T12:50:19.084Z,29.80
2023-06-29T12:51:20.914Z,29.90
2023-06-29T12:52:22.959Z,29.90
2023-06-29T12:53:24.752Z,29.80
2023-06-29T12:54:27.016Z,29.80
2023-06-29T12:55:28.822Z,29.70
2023-06-29T12:56:30.700Z,29.70
2023-06-29T12:57:33.701Z,29.60
2023-06-29T12:58:35.572Z,29.70
2023-06-29T12:59:37.883Z,29.60
2023-06-29T13:00:39.695Z,29.70
2023-06-29T13:01:41.606Z,29.70
2023-06-29T13:02:43.622Z,29.80
2023-06-29T13:03:45.753Z,29.90
2023-06-29T13:04:47.802Z,30.00
2023-06-29T13:05:53.053Z,30.10
2023-06-29T13:06:55.951Z,30.20
2023-06-29T13:07:57.736Z,30.20
2023-06-29T13:08:59.749Z,30.20
2023-06-29T13:10:01.654Z,30.10
2023-06-29T13:11:05.678Z,30.10
2023-06-29T13:12:07.807Z,30.00
2023-06-29T13:13:09.682Z,30.00
2023-06-29T13:14:11.503Z,29.90
2023-06-29T13:15:13.467Z,29.90
2023-06-29T13:16:15.296Z,29.80
2023-06-29T13:17:17.398Z,29.80
2023-06-29T13:18:19.393Z,29.80
2023-06-29T13:19:21.318Z,29.80
2023-06-29T13:20:23.107Z,29.90
2023-06-29T13:21:24.919Z,29.90
2023-06-29T13:22:26.838Z,30.00
2023-06-29T13:23:28.645Z,30.00
2023-06-29T13:24:30.614Z,30.10
2023-06-29T13:25:32.395Z,30.00
2023-06-29T13:26:34.178Z,29.80
2023-06-29T13:27:38.068Z,29.70
2023-06-29T13:28:39.864Z,29.70
2023-06-29T13:29:41.767Z,29.70
2023-06-29T13:30:43.580Z,29.70
2023-06-29T13:31:47.035Z,29.70
2023-06-29T13:32:49.540Z,29.70
2023-06-29T13:33:52.727Z,29.90
2023-06-29T13:34:54.583Z,30.10
2023-06-29T13:35:56.426Z,30.20
2023-06-29T13:36:58.385Z,30.30
2023-06-29T13:38:00.528Z,30.30
2023-06-29T13:39:02.409Z,30.30
2023-06-29T13:40:05.280Z,30.30
2023-06-29T13:41:07.106Z,30.30
2023-06-29T13:42:13.143Z,30.40
2023-06-29T13:43:14.970Z,30.50
2023-06-29T13:44:17.658Z,30.40
2023-06-29T13:45:19.581Z,30.50
2023-06-29T13:46:21.351Z,30.60
2023-06-29T13:47:23.829Z,30.80
2023-06-29T13:48:25.865Z,30.80
2023-06-29T13:49:27.772Z,30.70
2023-06-29T13:50:40.948Z,30.60
2023-06-29T13:51:44.106Z,30.70